Time;durP1;ratioP1;P1;durP2;ratioP2;P2;SDS_P1;SDS_P2;PMS_P1;PMS_P2;Temp;Humidity;BMP_temperature;BMP_pressure;BME280_temperature;BME280_humidity;BME280_pressure;Samples;Min_cycle;Max_cycle;Signal;HPM_P1;HPM_P2
2023/07/06 00:01:02;;;;;;;20.17;13.80;;;23.80;99.90;;;;;;5289776;28;20077;-70
2023/07/06 00:03:33;;;;;;;18.50;13.50;;;23.70;99.90;;;;;;5289575;28;20043;-71
2023/07/06 00:06:08;;;;;;;15.73;12.75;;;23.80;99.90;;;;;;5289668;28;20016;-71
2023/07/06 00:08:39;;;;;;;17.38;14.55;;;23.70;99.90;;;;;;5289556;28;20030;-70
2023/07/06 00:11:10;;;;;;;19.38;14.35;;;23.70;99.90;;;;;;5289451;28;20019;-71
2023/07/06 00:13:41;;;;;;;19.85;13.23;;;23.60;99.90;;;;;;5289552;28;20045;-71
2023/07/06 00:16:11;;;;;;;16.60;14.77;;;23.70;99.90;;;;;;5289331;28;20479;-70
2023/07/06 00:18:42;;;;;;;14.55;12.43;;;23.60;99.90;;;;;;5289466;28;20475;-71
2023/07/06 00:21:13;;;;;;;17.60;12.93;;;23.70;99.90;;;;;;5289426;28;20023;-71
2023/07/06 00:23:44;;;;;;;20.27;13.07;;;23.60;99.90;;;;;;5288980;28;20161;-71
2023/07/06 00:26:16;;;;;;;14.77;12.38;;;23.70;99.90;;;;;;5289334;28;20483;-70
2023/07/06 00:28:51;;;;;;;15.43;11.68;;;23.70;99.90;;;;;;5289317;28;20030;-70
2023/07/06 00:31:32;;;;;;;14.25;11.75;;;23.70;99.90;;;;;;5271095;28;20216;-71
2023/07/06 00:34:04;;;;;;;16.40;12.48;;;23.80;99.90;;;;;;5289265;28;20027;-70
2023/07/06 00:36:35;;;;;;;12.88;10.25;;;23.70;99.90;;;;;;5289139;28;20051;-70
2023/07/06 00:39:06;;;;;;;12.30;10.38;;;23.70;99.90;;;;;;5289160;28;20027;-71
2023/07/06 00:41:37;;;;;;;13.57;10.55;;;23.70;99.90;;;;;;5289173;28;20101;-71
2023/07/06 00:44:45;;;;;;;11.65;9.98;;;23.60;99.90;;;;;;5288954;28;20036;-71
2023/07/06 00:47:41;;;;;;;11.88;9.55;;;23.80;99.90;;;;;;5289014;28;20115;-71
2023/07/06 00:50:16;;;;;;;12.15;9.57;;;23.70;99.90;;;;;;5289138;28;20032;-71
2023/07/06 00:53:00;;;;;;;13.30;10.13;;;23.70;99.90;;;;;;5288949;28;20097;-70
2023/07/06 00:55:36;;;;;;;11.45;10.15;;;23.60;99.90;;;;;;5289219;28;20445;-70
2023/07/06 00:58:24;;;;;;;11.90;10.70;;;23.70;99.90;;;;;;5289002;28;20030;-71
2023/07/06 01:01:00;;;;;;;15.05;11.20;;;23.70;99.90;;;;;;5292352;28;20020;-70
2023/07/06 01:03:43;;;;;;;11.85;10.65;;;23.70;99.90;;;;;;5293064;28;20047;-71
2023/07/06 01:06:19;;;;;;;13.18;11.00;;;23.70;99.90;;;;;;5293125;28;20027;-71
2023/07/06 01:08:52;;;;;;;13.73;12.18;;;23.60;99.90;;;;;;5293112;28;20028;-71
2023/07/06 01:11:24;;;;;;;16.67;12.30;;;23.60;99.90;;;;;;5293142;28;20023;-71
2023/07/06 01:13:55;;;;;;;15.50;11.70;;;23.60;99.90;;;;;;5293070;28;20106;-71
2023/07/06 01:16:30;;;;;;;13.07;11.30;;;23.60;99.90;;;;;;5292883;28;20541;-71
2023/07/06 01:19:25;;;;;;;17.38;11.82;;;23.60;99.90;;;;;;5292886;28;20031;-71
2023/07/06 01:22:17;;;;;;;12.95;11.73;;;23.50;99.90;;;;;;5292905;28;20031;-71
2023/07/06 01:25:03;;;;;;;14.77;12.50;;;23.60;99.90;;;;;;5274556;28;20055;-71
2023/07/06 01:27:54;;;;;;;12.57;11.15;;;23.60;99.90;;;;;;5292715;28;20023;-71
2023/07/06 01:30:55;;;;;;;13.60;10.45;;;23.60;99.90;;;;;;5292723;28;20115;-70
2023/07/06 01:33:41;;;;;;;10.95;9.80;;;23.70;99.90;;;;;;5292695;28;20031;-70
2023/07/06 01:36:21;;;;;;;11.70;9.98;;;23.60;99.90;;;;;;5292842;28;20368;-71
2023/07/06 01:39:12;;;;;;;13.50;10.98;;;23.60;99.90;;;;;;5292707;28;20035;-71
2023/07/06 01:41:45;;;;;;;13.93;11.55;;;23.60;99.90;;;;;;5292544;28;20106;-71
2023/07/06 01:44:16;;;;;;;11.93;10.55;;;23.70;99.90;;;;;;5292274;28;20042;-70
2023/07/06 01:46:54;;;;;;;12.43;9.65;;;23.70;99.90;;;;;;5292457;28;20127;-71
2023/07/06 01:49:25;;;;;;;15.60;10.40;;;23.70;99.90;;;;;;5292270;28;20111;-70
2023/07/06 01:52:11;;;;;;;13.18;10.45;;;23.70;99.90;;;;;;5292493;28;20530;-71
2023/07/06 01:54:52;;;;;;;11.23;10.13;;;23.60;99.90;;;;;;5292571;28;20050;-71
2023/07/06 01:57:33;;;;;;;11.52;10.25;;;23.80;99.90;;;;;;5292411;28;20080;-71
2023/07/06 02:00:09;;;;;;;12.82;11.35;;;23.70;99.90;;;;;;5292374;28;20037;-71
2023/07/06 02:02:44;;;;;;;13.13;10.50;;;23.80;99.90;;;;;;5292179;28;20038;-70
2023/07/06 02:05:16;;;;;;;13.38;10.45;;;23.80;99.90;;;;;;5292123;28;20050;-70
2023/07/06 02:07:49;;;;;;;11.55;10.25;;;23.80;99.90;;;;;;5292092;28;20348;-71
2023/07/06 02:10:22;;;;;;;12.35;10.05;;;23.80;99.90;;;;;;5291953;28;20051;-70
2023/07/06 02:12:52;;;;;;;11.75;10.30;;;23.70;99.90;;;;;;5290993;28;20027;-72
2023/07/06 02:15:24;;;;;;;15.05;10.27;;;23.80;99.90;;;;;;5291866;28;20038;-70
2023/07/06 02:17:55;;;;;;;13.27;10.70;;;23.80;99.90;;;;;;5291808;28;20015;-70
2023/07/06 02:20:26;;;;;;;16.98;11.02;;;23.70;99.90;;;;;;5291808;28;20346;-70
2023/07/06 02:22:56;;;;;;;15.77;13.10;;;23.70;99.90;;;;;;5291585;28;20024;-71
2023/07/06 02:25:27;;;;;;;22.63;13.63;;;23.70;99.90;;;;;;5291704;28;20039;-72
2023/07/06 02:27:58;;;;;;;22.08;15.27;;;23.70;99.90;;;;;;5291663;28;20102;-72
2023/07/06 02:30:29;;;;;;;20.98;16.05;;;23.70;99.90;;;;;;5291627;28;20028;-72
2023/07/06 02:33:00;;;;;;;23.88;17.67;;;23.80;99.90;;;;;;5291510;28;20095;-72
2023/07/06 02:35:32;;;;;;;21.80;16.27;;;23.80;99.90;;;;;;5273207;28;20031;-71
2023/07/06 02:38:03;;;;;;;20.27;15.15;;;23.80;99.90;;;;;;5291479;28;20045;-71
2023/07/06 02:40:36;;;;;;;20.25;15.45;;;23.70;99.90;;;;;;5291308;28;20028;-72
2023/07/06 02:43:07;;;;;;;17.80;14.57;;;23.80;99.90;;;;;;5291093;28;20019;-71
2023/07/06 02:45:38;;;;;;;20.60;14.82;;;23.80;99.90;;;;;;5291136;28;20035;-72
2023/07/06 02:48:09;;;;;;;20.27;14.05;;;23.80;99.90;;;;;;5291090;28;20081;-72
2023/07/06 02:50:40;;;;;;;14.85;12.77;;;23.80;99.90;;;;;;5291111;28;20034;-71
2023/07/06 02:53:10;;;;;;;13.88;11.93;;;23.80;99.90;;;;;;5290715;28;20522;-72
2023/07/06 02:55:41;;;;;;;14.45;11.88;;;23.80;99.90;;;;;;5291182;28;20028;-71
2023/07/06 02:58:12;;;;;;;13.27;11.88;;;23.80;99.90;;;;;;5290968;28;20059;-71
2023/07/06 03:00:46;;;;;;;13.48;9.98;;;23.80;99.90;;;;;;5290953;28;20039;-71
2023/07/06 03:03:17;;;;;;;11.82;10.55;;;23.90;99.90;;;;;;5290785;28;20111;-72
2023/07/06 03:05:49;;;;;;;13.75;10.40;;;23.90;99.90;;;;;;5290888;28;20114;-72
2023/07/06 03:08:20;;;;;;;11.73;10.50;;;23.90;99.90;;;;;;5290721;28;20016;-71
2023/07/06 03:10:53;;;;;;;14.52;10.35;;;23.90;99.90;;;;;;5291204;28;20061;-71
2023/07/06 03:13:28;;;;;;;11.80;10.43;;;23.90;99.90;;;;;;5290737;28;20100;-71
2023/07/06 03:15:59;;;;;;;15.55;12.13;;;24.00;99.90;;;;;;5290751;28;20028;-71
2023/07/06 03:18:30;;;;;;;13.20;10.68;;;24.00;99.90;;;;;;5290672;28;20514;-72
2023/07/06 03:21:01;;;;;;;15.43;11.40;;;23.90;99.90;;;;;;5290518;28;20115;-71
2023/07/06 03:23:31;;;;;;;14.52;11.93;;;24.00;99.90;;;;;;5289067;28;20134;-71
2023/07/06 03:26:02;;;;;;;13.00;11.80;;;24.00;99.90;;;;;;5290283;28;20027;-72
2023/07/06 03:28:34;;;;;;;16.45;12.48;;;24.00;99.90;;;;;;5290369;28;20480;-71
2023/07/06 03:31:05;;;;;;;18.30;13.55;;;24.00;99.90;;;;;;5290247;28;20027;-72
2023/07/06 03:33:37;;;;;;;17.75;13.55;;;24.00;99.90;;;;;;5290245;28;20024;-71
2023/07/06 03:36:08;;;;;;;14.90;13.30;;;24.00;99.90;;;;;;5272083;28;20419;-71
2023/07/06 03:38:39;;;;;;;16.75;13.65;;;24.10;99.90;;;;;;5290140;28;20046;-71
2023/07/06 03:41:11;;;;;;;17.33;13.88;;;24.10;99.90;;;;;;5290154;28;20077;-71
2023/07/06 03:43:41;;;;;;;19.30;13.55;;;24.10;99.90;;;;;;5271616;28;20498;-71
2023/07/06 03:46:12;;;;;;;21.80;11.93;;;24.10;99.90;;;;;;5289922;28;20023;-71
2023/07/06 03:48:47;;;;;;;17.80;12.02;;;24.20;99.90;;;;;;5289923;28;20011;-71
2023/07/06 03:51:17;;;;;;;16.38;12.32;;;24.20;99.90;;;;;;5290030;28;20423;-71
2023/07/06 03:53:48;;;;;;;14.70;11.70;;;24.20;99.90;;;;;;5289603;28;20123;-72
2023/07/06 03:56:27;;;;;;;13.23;11.25;;;24.30;99.90;;;;;;5289785;28;20015;-71
2023/07/06 03:58:59;;;;;;;12.80;11.57;;;24.30;99.90;;;;;;5289893;28;20030;-71
2023/07/06 04:01:32;;;;;;;15.48;11.32;;;24.30;99.90;;;;;;5289697;28;20103;-71
2023/07/06 04:04:06;;;;;;;14.05;10.85;;;24.30;99.90;;;;;;5289533;28;20046;-71
2023/07/06 04:06:40;;;;;;;15.02;10.75;;;24.30;99.90;;;;;;5289552;28;20405;-71
2023/07/06 04:09:13;;;;;;;14.20;11.15;;;24.40;99.90;;;;;;5289727;28;20020;-71
2023/07/06 04:11:43;;;;;;;13.10;10.27;;;24.50;99.90;;;;;;5289672;28;20024;-72
2023/07/06 04:14:15;;;;;;;12.93;9.57;;;24.60;99.90;;;;;;5289340;28;20073;-71
2023/07/06 04:16:46;;;;;;;11.90;10.30;;;24.60;99.90;;;;;;5289483;28;20020;-71
2023/07/06 04:19:18;;;;;;;18.25;10.93;;;24.70;99.90;;;;;;5289550;28;20501;-71
2023/07/06 04:21:49;;;;;;;11.35;10.25;;;24.70;99.90;;;;;;5289391;28;20019;-71
2023/07/06 04:24:19;;;;;;;10.98;9.93;;;24.80;99.90;;;;;;5289131;28;20467;-71
2023/07/06 04:26:51;;;;;;;11.88;10.63;;;24.80;99.90;;;;;;5289536;28;20355;-71
2023/07/06 04:29:22;;;;;;;16.40;10.75;;;24.80;99.90;;;;;;5289461;28;20012;-71
2023/07/06 04:31:55;;;;;;;13.07;10.55;;;24.80;99.90;;;;;;5289343;28;20023;-71
2023/07/06 04:34:27;;;;;;;11.77;10.73;;;24.80;99.90;;;;;;5288979;28;20031;-71
2023/07/06 04:36:58;;;;;;;12.00;10.82;;;24.80;99.90;;;;;;5289422;28;20016;-71
2023/07/06 04:39:29;;;;;;;14.93;11.57;;;24.90;99.90;;;;;;5289220;28;20516;-71
2023/07/06 04:42:00;;;;;;;12.75;11.48;;;24.80;99.90;;;;;;5270917;28;20019;-71
2023/07/06 04:44:31;;;;;;;13.48;12.10;;;24.90;99.90;;;;;;5289495;28;20039;-71
2023/07/06 04:47:02;;;;;;;13.75;12.43;;;25.10;99.90;;;;;;5289150;28;20019;-71
2023/07/06 04:49:32;;;;;;;14.38;13.18;;;25.10;99.90;;;;;;5289115;28;20031;-71
2023/07/06 04:52:04;;;;;;;14.00;12.68;;;25.20;99.90;;;;;;5288851;28;20471;-71
2023/07/06 04:54:36;;;;;;;15.00;13.63;;;25.20;99.90;;;;;;5288973;28;20063;-72
2023/07/06 04:57:13;;;;;;;14.50;13.10;;;25.40;99.90;;;;;;5288901;28;20035;-71
2023/07/06 04:59:44;;;;;;;13.32;12.10;;;25.40;99.90;;;;;;5288958;28;20486;-71
2023/07/06 05:02:16;;;;;;;12.25;10.77;;;25.50;99.90;;;;;;5288774;28;20020;-71
2023/07/06 05:04:48;;;;;;;11.50;10.40;;;25.60;99.90;;;;;;5288758;28;20490;-71
2023/07/06 05:07:19;;;;;;;12.38;11.15;;;25.60;99.90;;;;;;5288838;28;20027;-72
2023/07/06 05:09:50;;;;;;;11.40;10.38;;;25.70;99.90;;;;;;5288867;28;20031;-71
2023/07/06 05:12:21;;;;;;;12.80;11.48;;;25.70;99.90;;;;;;5288686;28;20073;-71
2023/07/06 05:14:52;;;;;;;12.90;10.60;;;25.70;99.90;;;;;;5288821;28;20548;-72
2023/07/06 05:17:24;;;;;;;11.90;10.68;;;25.70;99.90;;;;;;5288730;28;20479;-71
2023/07/06 05:19:55;;;;;;;11.85;10.73;;;25.70;99.90;;;;;;5288712;28;20020;-72
2023/07/06 05:22:26;;;;;;;11.57;10.05;;;25.80;99.90;;;;;;5288453;28;20059;-71
2023/07/06 05:24:57;;;;;;;12.20;10.73;;;25.90;99.90;;;;;;5288550;28;20040;-71
2023/07/06 05:27:29;;;;;;;12.55;10.52;;;25.80;99.90;;;;;;5288553;28;20532;-71
2023/07/06 05:29:59;;;;;;;9.45;8.50;;;25.90;99.90;;;;;;5288638;28;20099;-72
2023/07/06 05:32:30;;;;;;;11.02;8.48;;;25.90;99.90;;;;;;5288506;28;20028;-72
2023/07/06 05:35:01;;;;;;;10.75;8.73;;;25.90;99.90;;;;;;5288845;28;20023;-72
2023/07/06 05:37:33;;;;;;;8.77;7.85;;;25.90;99.90;;;;;;5288905;28;20077;-71
2023/07/06 05:40:06;;;;;;;10.45;8.93;;;26.00;99.90;;;;;;5288696;28;20030;-71
2023/07/06 05:42:37;;;;;;;10.40;8.02;;;26.00;99.90;;;;;;5288396;28;20028;-71
2023/07/06 05:45:08;;;;;;;11.02;10.02;;;25.90;99.90;;;;;;5288455;28;20045;-71
2023/07/06 05:47:39;;;;;;;11.48;10.45;;;26.00;99.90;;;;;;5291080;28;20020;-72
2023/07/06 05:50:10;;;;;;;11.45;10.45;;;26.10;99.90;;;;;;5292298;28;20034;-71
2023/07/06 05:52:41;;;;;;;11.40;10.48;;;26.10;99.90;;;;;;5292081;28;20467;-72
2023/07/06 05:55:12;;;;;;;12.10;11.10;;;26.30;99.90;;;;;;5292444;28;20100;-71
2023/07/06 05:57:45;;;;;;;11.07;10.15;;;26.20;99.90;;;;;;5292440;28;20059;-72
2023/07/06 06:00:16;;;;;;;11.50;10.52;;;26.10;99.90;;;;;;5292274;28;20080;-71
2023/07/06 06:02:46;;;;;;;9.98;8.98;;;26.30;99.90;;;;;;5292157;28;20455;-72
2023/07/06 06:05:17;;;;;;;8.70;7.95;;;26.30;99.90;;;;;;5291929;28;20039;-72
2023/07/06 06:07:48;;;;;;;10.63;8.30;;;26.30;99.90;;;;;;5292225;28;20028;-71
2023/07/06 06:10:22;;;;;;;9.00;8.07;;;26.30;99.90;;;;;;5291848;28;20081;-72
2023/07/06 06:12:53;;;;;;;9.13;8.32;;;26.30;99.90;;;;;;5291736;28;20033;-72
2023/07/06 06:15:24;;;;;;;9.90;8.88;;;26.20;99.90;;;;;;5291837;28;20027;-71
2023/07/06 06:17:54;;;;;;;10.70;9.85;;;26.20;99.90;;;;;;5291705;28;20115;-71
2023/07/06 06:20:25;;;;;;;11.25;10.27;;;26.20;99.90;;;;;;5291601;28;20452;-72
2023/07/06 06:22:58;;;;;;;10.30;9.27;;;26.10;99.90;;;;;;5291471;28;20496;-72
2023/07/06 06:25:29;;;;;;;12.30;11.07;;;26.30;99.90;;;;;;5291420;28;20039;-71
2023/07/06 06:27:59;;;;;;;12.27;11.07;;;26.30;99.90;;;;;;5291525;28;20035;-72
2023/07/06 06:30:30;;;;;;;11.73;10.55;;;26.30;99.90;;;;;;5291451;28;20020;-71
2023/07/06 06:33:01;;;;;;;10.27;9.18;;;26.30;99.90;;;;;;5291508;28;20094;-72
2023/07/06 06:35:33;;;;;;;12.13;8.82;;;26.30;99.90;;;;;;5291499;28;20427;-72
2023/07/06 06:38:05;;;;;;;11.27;10.00;;;26.40;99.90;;;;;;5291379;28;20019;-72
2023/07/06 06:40:36;;;;;;;10.55;9.45;;;26.50;99.90;;;;;;5291660;28;20028;-72
2023/07/06 06:43:07;;;;;;;12.75;10.30;;;26.50;99.90;;;;;;5291205;28;20024;-72
2023/07/06 06:45:39;;;;;;;9.95;9.15;;;26.60;99.90;;;;;;5291240;28;20475;-72
2023/07/06 06:48:11;;;;;;;14.15;9.82;;;26.60;99.90;;;;;;5291331;28;20020;-71
2023/07/06 06:50:41;;;;;;;10.57;9.45;;;26.40;99.90;;;;;;5291205;28;20024;-71
2023/07/06 06:53:12;;;;;;;11.02;9.95;;;26.40;99.90;;;;;;5290958;28;20073;-71
2023/07/06 06:55:43;;;;;;;9.90;8.98;;;26.60;99.90;;;;;;5291470;28;20038;-72
2023/07/06 06:58:15;;;;;;;10.60;9.80;;;26.50;99.90;;;;;;5291123;28;20020;-71
2023/07/06 07:00:46;;;;;;;10.55;9.38;;;26.50;99.90;;;;;;5291097;28;20110;-71
2023/07/06 07:03:16;;;;;;;11.23;10.32;;;26.50;99.90;;;;;;5290868;28;20104;-71
2023/07/06 07:05:47;;;;;;;12.85;10.48;;;26.50;99.90;;;;;;5290930;28;20120;-71
2023/07/06 07:08:18;;;;;;;12.65;10.57;;;26.50;99.90;;;;;;5290804;28;20027;-71
2023/07/06 07:10:56;;;;;;;12.23;10.88;;;26.50;99.90;;;;;;5290768;28;20107;-71
2023/07/06 07:13:27;;;;;;;10.43;9.48;;;26.60;99.90;;;;;;5290698;28;20032;-71
2023/07/06 07:15:58;;;;;;;10.95;9.65;;;26.50;99.90;;;;;;5290736;28;20031;-72
2023/07/06 07:18:29;;;;;;;10.25;9.35;;;26.50;99.90;;;;;;5290643;28;20027;-71
2023/07/06 07:21:03;;;;;;;12.15;10.23;;;26.50;99.90;;;;;;5290632;28;20106;-71
2023/07/06 07:23:40;;;;;;;10.30;9.25;;;26.60;99.90;;;;;;5290337;28;20046;-72
2023/07/06 07:26:18;;;;;;;11.55;10.65;;;26.60;99.90;;;;;;5290575;28;20051;-72
2023/07/06 07:28:50;;;;;;;13.43;12.15;;;26.60;99.90;;;;;;5290610;28;20076;-71
2023/07/06 07:31:22;;;;;;;13.02;11.82;;;26.60;99.90;;;;;;5290343;28;20031;-71
2023/07/06 07:33:54;;;;;;;13.30;11.93;;;26.60;99.90;;;;;;5290429;28;20034;-71
2023/07/06 07:36:24;;;;;;;12.80;11.48;;;26.60;99.90;;;;;;5290258;28;20585;-71
2023/07/06 07:38:56;;;;;;;14.45;11.88;;;26.80;99.90;;;;;;5290343;28;20111;-71
2023/07/06 07:41:27;;;;;;;18.30;12.65;;;26.90;99.90;;;;;;5271917;28;20028;-71
2023/07/06 07:43:58;;;;;;;13.60;12.40;;;27.20;99.90;;;;;;5289919;28;20384;-72
2023/07/06 07:46:30;;;;;;;14.60;13.20;;;27.40;99.90;;;;;;5290021;28;20023;-72
2023/07/06 07:49:01;;;;;;;13.93;12.52;;;27.60;99.90;;;;;;5290045;28;20024;-71
2023/07/06 07:51:32;;;;;;;12.88;11.68;;;27.50;99.90;;;;;;5290004;28;20558;-71
2023/07/06 07:54:02;;;;;;;11.50;10.30;;;27.70;99.90;;;;;;5289624;28;20059;-72
2023/07/06 07:56:34;;;;;;;11.68;10.02;;;27.80;99.90;;;;;;5290157;28;20491;-72
2023/07/06 07:59:05;;;;;;;10.00;9.10;;;27.60;99.90;;;;;;5290001;28;20073;-71
2023/07/06 08:01:36;;;;;;;15.98;9.75;;;27.70;99.90;;;;;;5289813;28;20094;-72
2023/07/06 08:04:06;;;;;;;12.80;9.13;;;27.70;99.90;;;;;;5289596;28;20015;-72
2023/07/06 08:06:40;;;;;;;11.30;10.10;;;27.70;99.90;;;;;;5289595;28;20034;-72
2023/07/06 08:09:13;;;;;;;13.80;10.65;;;27.70;99.90;;;;;;5289122;28;20016;-71
2023/07/06 08:11:46;;;;;;;12.05;10.82;;;28.10;99.90;;;;;;5289458;28;20019;-71
2023/07/06 08:14:39;;;;;;;15.18;11.18;;;27.80;99.90;;;;;;5289567;28;20478;-72
2023/07/06 08:17:10;;;;;;;11.05;9.23;;;28.10;99.90;;;;;;5289598;28;20556;-72
2023/07/06 08:19:41;;;;;;;10.07;9.00;;;28.00;99.90;;;;;;5289459;28;20051;-71
2023/07/06 08:22:12;;;;;;;10.90;9.15;;;27.90;99.90;;;;;;5289287;28;20050;-71
2023/07/06 08:24:43;;;;;;;11.02;10.02;;;28.00;99.90;;;;;;5289255;28;20036;-71
2023/07/06 08:27:13;;;;;;;11.50;10.32;;;28.00;99.90;;;;;;5289339;28;20031;-71
2023/07/06 08:29:45;;;;;;;11.75;10.77;;;27.80;99.90;;;;;;5289362;28;20433;-71
2023/07/06 08:32:19;;;;;;;11.02;9.95;;;28.10;99.90;;;;;;5289152;28;20027;-72
2023/07/06 08:34:50;;;;;;;14.18;10.55;;;28.10;99.90;;;;;;5289109;28;20028;-71
2023/07/06 08:37:21;;;;;;;13.63;12.15;;;27.80;99.90;;;;;;5289035;28;20035;-71
2023/07/06 08:39:52;;;;;;;14.40;10.60;;;27.50;99.90;;;;;;5289140;28;20023;-72
2023/07/06 08:42:23;;;;;;;11.07;9.93;;;27.70;99.90;;;;;;5288860;28;20076;-71
2023/07/06 08:44:56;;;;;;;11.40;10.30;;;27.60;99.90;;;;;;5288710;28;20039;-71
2023/07/06 08:47:26;;;;;;;11.23;10.13;;;27.70;99.90;;;;;;5289076;28;20087;-71
2023/07/06 08:49:59;;;;;;;11.38;10.25;;;27.50;99.90;;;;;;5288938;28;20094;-71
2023/07/06 08:52:31;;;;;;;13.27;9.93;;;27.60;99.90;;;;;;5288947;28;20032;-71
2023/07/06 08:55:03;;;;;;;12.52;9.57;;;27.90;99.90;;;;;;5288933;28;20067;-71
2023/07/06 08:57:33;;;;;;;13.50;10.18;;;27.80;99.90;;;;;;5288831;28;20035;-71
2023/07/06 09:00:21;;;;;;;13.65;10.20;;;27.70;99.90;;;;;;5288933;28;20020;-71
2023/07/06 09:03:14;;;;;;;11.57;10.27;;;27.60;99.90;;;;;;5289058;28;20471;-72
2023/07/06 09:05:47;;;;;;;12.38;10.85;;;27.70;99.90;;;;;;5288243;28;20043;-71
2023/07/06 09:08:19;;;;;;;12.90;10.15;;;27.50;99.90;;;;;;5288935;28;20478;-71
2023/07/06 09:10:49;;;;;;;10.80;9.73;;;27.90;99.90;;;;;;5288699;28;20133;-72
2023/07/06 09:13:26;;;;;;;13.48;9.40;;;27.90;99.90;;;;;;5288761;28;20110;-71
2023/07/06 09:16:01;;;;;;;13.57;9.07;;;27.70;99.90;;;;;;5289086;28;20036;-71
2023/07/06 09:18:31;;;;;;;13.18;9.00;;;27.90;99.90;;;;;;5289223;28;20456;-71
2023/07/06 09:21:03;;;;;;;9.93;8.93;;;28.20;99.90;;;;;;5290746;28;20030;-71
2023/07/06 09:23:34;;;;;;;13.40;9.32;;;28.40;99.90;;;;;;5292859;28;20024;-71
2023/07/06 09:26:07;;;;;;;11.73;8.95;;;28.80;99.90;;;;;;5292867;28;20046;-72
2023/07/06 09:28:38;;;;;;;10.95;8.48;;;28.60;99.90;;;;;;5292950;28;20095;-72
2023/07/06 09:31:16;;;;;;;9.32;8.15;;;28.50;99.90;;;;;;5292798;28;20114;-71
2023/07/06 09:33:49;;;;;;;10.65;8.13;;;28.90;99.90;;;;;;5292942;28;20200;-71
2023/07/06 09:36:25;;;;;;;12.02;9.05;;;29.30;99.90;;;;;;5292760;28;20024;-72
2023/07/06 09:39:03;;;;;;;10.40;8.82;;;29.40;99.90;;;;;;5292757;28;20020;-71
2023/07/06 09:41:37;;;;;;;10.35;8.88;;;29.30;99.90;;;;;;5292557;28;20069;-71
2023/07/06 09:44:24;;;;;;;10.40;7.78;;;29.30;99.90;;;;;;5292452;28;20046;-72
2023/07/06 09:46:55;;;;;;;9.95;6.93;;;29.30;99.90;;;;;;5292560;28;20023;-71
2023/07/06 09:49:40;;;;;;;10.20;7.10;;;29.00;99.90;;;;;;5292507;28;20019;-71
2023/07/06 09:52:15;;;;;;;9.35;7.45;;;29.20;99.90;;;;;;5292224;28;20047;-72
2023/07/06 09:55:15;;;;;;;12.93;6.90;;;29.50;99.90;;;;;;5292179;28;20067;-71
2023/07/06 09:57:50;;;;;;;7.82;7.07;;;29.50;99.90;;;;;;5292308;28;20015;-71
2023/07/06 10:00:29;;;;;;;8.85;7.25;;;29.30;99.90;;;;;;5292243;28;20114;-72
2023/07/06 10:03:28;;;;;;;8.65;7.38;;;29.30;99.90;;;;;;5292137;28;20340;-71
2023/07/06 10:06:11;;;;;;;9.07;7.97;;;29.50;99.90;;;;;;5292164;28;20112;-71
2023/07/06 10:08:58;;;;;;;8.15;7.35;;;29.70;99.90;;;;;;5292029;28;20043;-71
2023/07/06 10:11:56;;;;;;;7.45;6.60;;;29.30;99.90;;;;;;5291887;28;20034;-71
2023/07/06 10:14:47;;;;;;;7.03;6.22;;;29.10;99.90;;;;;;5281261;28;20041;-71
2023/07/06 10:17:39;;;;;;;8.13;6.60;;;28.90;99.90;;;;;;5291939;28;20020;-72
2023/07/06 10:20:30;;;;;;;9.68;7.28;;;29.10;99.90;;;;;;5291908;28;20027;-71
2023/07/06 10:23:11;;;;;;;10.48;6.93;;;29.00;99.90;;;;;;5291769;28;20019;-72
2023/07/06 10:26:00;;;;;;;11.13;6.80;;;29.10;99.90;;;;;;5291592;28;20040;-71
2023/07/06 10:28:38;;;;;;;6.47;5.78;;;29.50;99.90;;;;;;5291739;28;20020;-71
2023/07/06 10:31:16;;;;;;;10.95;5.95;;;29.50;99.90;;;;;;5291640;28;20051;-72
2023/07/06 10:34:02;;;;;;;10.90;5.70;;;29.80;99.90;;;;;;5291253;28;20023;-72
2023/07/06 10:36:35;;;;;;;8.55;5.38;;;29.70;99.90;;;;;;5291843;28;20024;-71
2023/07/06 10:39:29;;;;;;;8.88;5.68;;;29.80;99.90;;;;;;5291499;28;20032;-72
2023/07/06 10:42:03;;;;;;;11.38;7.32;;;29.80;99.90;;;;;;5241529;28;20047;-71
2023/07/06 10:44:46;;;;;;;8.75;6.88;;;29.70;99.90;;;;;;5291292;28;20420;-72
2023/07/06 10:47:48;;;;;;;10.50;8.32;;;30.10;99.90;;;;;;5291374;28;20068;-72
2023/07/06 10:50:30;;;;;;;9.70;8.80;;;29.90;99.90;;;;;;5270906;28;20376;-72
2023/07/06 10:53:17;;;;;;;9.30;7.90;;;29.90;99.90;;;;;;5290918;28;20043;-72
2023/07/06 10:56:19;;;;;;;11.00;7.25;;;29.80;99.90;;;;;;5291200;28;20024;-71
2023/07/06 10:58:59;;;;;;;10.73;7.05;;;30.00;99.90;;;;;;5289804;28;20035;-71
2023/07/06 11:01:37;;;;;;;7.47;6.60;;;30.10;99.90;;;;;;5291140;28;20543;-71
2023/07/06 11:04:36;;;;;;;10.13;6.45;;;30.00;99.90;;;;;;5290899;28;20033;-71
2023/07/06 11:07:09;;;;;;;10.45;6.35;;;30.40;99.90;;;;;;5290771;28;20020;-72
2023/07/06 11:09:48;;;;;;;7.03;5.93;;;30.30;99.90;;;;;;5290903;28;20024;-71
2023/07/06 11:12:20;;;;;;;7.72;6.85;;;30.40;99.90;;;;;;5290542;28;20028;-72
2023/07/06 11:15:15;;;;;;;12.52;7.22;;;30.20;99.90;;;;;;5290841;28;20500;-72
2023/07/06 11:17:48;;;;;;;9.63;7.53;;;30.40;99.90;;;;;;5290530;28;20054;-71
2023/07/06 11:20:28;;;;;;;9.85;7.03;;;30.30;99.90;;;;;;5290485;28;20035;-71
2023/07/06 11:23:04;;;;;;;10.38;6.50;;;30.20;99.90;;;;;;5290357;28;20035;-71
2023/07/06 11:25:38;;;;;;;7.50;6.70;;;30.30;99.90;;;;;;5290281;28;20414;-72
2023/07/06 11:28:14;;;;;;;7.28;6.57;;;30.60;99.90;;;;;;5290380;28;20024;-72
2023/07/06 11:30:55;;;;;;;7.88;7.18;;;30.50;99.90;;;;;;5290373;28;20030;-71
2023/07/06 11:33:34;;;;;;;10.57;7.90;;;30.60;99.90;;;;;;5290632;28;20019;-71
2023/07/06 11:36:10;;;;;;;13.88;7.50;;;30.60;99.90;;;;;;5290274;28;20019;-72
2023/07/06 11:38:56;;;;;;;9.73;7.80;;;30.70;99.90;;;;;;5290306;28;20039;-71
2023/07/06 11:41:53;;;;;;;10.82;7.95;;;30.40;99.90;;;;;;5290135;28;20469;-72
2023/07/06 11:44:50;;;;;;;8.73;7.00;;;30.60;99.90;;;;;;5289306;28;20039;-72
2023/07/06 11:47:44;;;;;;;9.48;6.40;;;30.60;99.90;;;;;;5290405;28;20392;-72
2023/07/06 11:50:19;;;;;;;18.98;7.53;;;30.60;99.90;;;;;;5276778;28;20093;-71
2023/07/06 11:53:09;;;;;;;8.02;5.85;;;30.90;99.90;;;;;;5289600;28;20081;-72
2023/07/06 11:55:50;;;;;;;10.30;6.32;;;30.80;99.90;;;;;;5290196;28;20024;-71
2023/07/06 11:58:42;;;;;;;10.95;5.97;;;30.90;99.90;;;;;;5290017;28;20126;-71
2023/07/06 12:01:33;;;;;;;7.43;5.82;;;31.00;99.90;;;;;;5289935;28;20494;-72
2023/07/06 12:04:10;;;;;;;6.63;6.00;;;30.90;99.90;;;;;;5289839;28;20123;-72
2023/07/06 12:06:41;;;;;;;9.48;5.78;;;30.70;99.90;;;;;;5289692;28;20082;-71
2023/07/06 12:09:19;;;;;;;9.93;5.65;;;30.80;99.90;;;;;;5289843;28;20047;-72
2023/07/06 12:12:15;;;;;;;5.55;5.00;;;30.80;99.90;;;;;;5289568;28;20107;-71
2023/07/06 12:14:46;;;;;;;9.00;5.03;;;30.80;99.90;;;;;;5289695;28;20031;-72
2023/07/06 12:17:16;;;;;;;13.25;5.18;;;30.70;99.90;;;;;;5289601;28;20474;-72
2023/07/06 12:19:48;;;;;;;7.43;5.22;;;30.90;99.90;;;;;;5289500;28;20031;-71
2023/07/06 12:22:19;;;;;;;10.07;4.88;;;30.90;99.90;;;;;;5289363;28;20036;-71
2023/07/06 12:24:55;;;;;;;8.20;4.70;;;30.80;99.90;;;;;;5289218;28;20650;-72
2023/07/06 12:27:27;;;;;;;8.55;5.28;;;30.90;99.90;;;;;;5289360;28;20416;-71
2023/07/06 12:30:06;;;;;;;5.20;4.78;;;30.80;99.90;;;;;;5289367;28;20027;-71
2023/07/06 12:32:37;;;;;;;8.73;4.40;;;30.90;99.90;;;;;;5289246;28;20494;-71
2023/07/06 12:35:11;;;;;;;6.60;4.85;;;30.80;99.90;;;;;;5289315;28;20070;-72
2023/07/06 12:37:45;;;;;;;5.97;4.60;;;30.90;99.90;;;;;;5289234;28;20027;-71
2023/07/06 12:40:23;;;;;;;6.15;4.47;;;30.80;99.90;;;;;;5289256;28;20713;-71
2023/07/06 12:42:54;;;;;;;8.13;4.35;;;30.80;99.90;;;;;;5270726;28;20506;-71
2023/07/06 12:45:26;;;;;;;7.80;4.85;;;31.00;99.90;;;;;;5288975;28;20039;-71
2023/07/06 12:48:00;;;;;;;6.38;5.18;;;31.10;99.90;;;;;;5289130;28;20478;-71
2023/07/06 12:50:35;;;;;;;8.25;5.80;;;30.90;99.90;;;;;;5288900;28;20027;-71
2023/07/06 12:53:13;;;;;;;8.02;5.80;;;30.90;99.90;;;;;;5288747;28;20035;-71
2023/07/06 12:55:46;;;;;;;7.13;5.30;;;31.20;99.90;;;;;;5288817;28;20036;-71
2023/07/06 12:58:28;;;;;;;5.35;4.85;;;31.00;99.90;;;;;;5289019;28;20062;-71
2023/07/06 13:01:10;;;;;;;7.65;4.85;;;31.00;99.90;;;;;;5289288;28;20032;-72
2023/07/06 13:03:56;;;;;;;7.05;5.22;;;31.20;99.90;;;;;;5289108;28;20028;-71
2023/07/06 13:06:29;;;;;;;9.75;5.30;;;31.10;99.90;;;;;;5288947;28;20371;-72
2023/07/06 13:09:01;;;;;;;7.60;5.10;;;31.00;99.90;;;;;;5288835;28;20019;-71
2023/07/06 13:11:37;;;;;;;7.03;5.65;;;30.90;99.90;;;;;;5288708;28;20027;-71
2023/07/06 13:14:08;;;;;;;10.02;6.60;;;30.90;99.90;;;;;;5288808;28;20455;-71